createdAt,value
2022-08-28T00:00:15.669Z,17.65
2022-08-28T00:02:43.117Z,16.73
2022-08-28T00:05:11.640Z,15.57
2022-08-28T00:07:39.165Z,15.95
2022-08-28T00:10:07.696Z,15.70
2022-08-28T00:12:36.877Z,14.38
2022-08-28T00:15:13.029Z,13.60
2022-08-28T00:17:40.165Z,12.35
2022-08-28T00:20:10.073Z,12.32
2022-08-28T00:22:38.329Z,13.00
2022-08-28T00:25:06.905Z,12.65
2022-08-28T00:27:52.336Z,11.88
2022-08-28T00:30:50.790Z,12.35
2022-08-28T00:33:22.812Z,12.15
2022-08-28T00:35:50.040Z,11.73
2022-08-28T00:38:19.246Z,12.73
2022-08-28T00:40:50.419Z,13.00
2022-08-28T00:43:35.879Z,13.23
2022-08-28T00:46:04.547Z,13.20
2022-08-28T00:48:31.485Z,12.95
2022-08-28T00:51:17.108Z,13.07
2022-08-28T00:53:44.245Z,14.20
2022-08-28T00:56:13.141Z,12.88
2022-08-28T00:58:42.443Z,14.48
2022-08-28T01:01:09.336Z,13.45
2022-08-28T01:03:36.950Z,14.32
2022-08-28T01:06:04.022Z,15.07
2022-08-28T01:08:31.302Z,13.85
2022-08-28T01:10:59.577Z,14.63
2022-08-28T01:13:26.889Z,14.45
2022-08-28T01:15:54.557Z,13.65
2022-08-28T01:18:22.257Z,13.98
2022-08-28T01:21:02.057Z,14.32
2022-08-28T01:23:53.632Z,13.93
2022-08-28T01:26:21.012Z,14.05
2022-08-28T01:28:48.174Z,14.55
2022-08-28T01:31:16.488Z,14.35
2022-08-28T01:33:44.215Z,15.57
2022-08-28T01:36:12.528Z,14.60
2022-08-28T01:38:40.808Z,15.43
2022-08-28T01:41:08.154Z,13.90
2022-08-28T01:43:34.866Z,14.77
2022-08-28T01:46:04.617Z,15.90
2022-08-28T01:48:35.787Z,14.38
2022-08-28T01:51:03.954Z,15.23
2022-08-28T01:53:33.142Z,15.05
2022-08-28T01:56:01.941Z,15.30
2022-08-28T01:58:30.235Z,15.80
2022-08-28T02:00:57.430Z,16.73
2022-08-28T02:03:24.283Z,15.65
2022-08-28T02:05:51.393Z,16.08
2022-08-28T02:08:18.242Z,15.77
2022-08-28T02:10:46.785Z,16.40
2022-08-28T02:13:13.718Z,14.32
2022-08-28T02:15:42.348Z,16.80
2022-08-28T02:18:10.163Z,16.33
2022-08-28T02:20:37.329Z,16.60
2022-08-28T02:23:04.343Z,16.45
2022-08-28T02:25:31.054Z,16.45
2022-08-28T02:27:57.864Z,16.02
2022-08-28T02:30:24.803Z,16.25
2022-08-28T02:32:51.818Z,15.02
2022-08-28T02:35:19.701Z,15.90
2022-08-28T02:37:47.867Z,15.63
2022-08-28T02:40:16.370Z,15.52
2022-08-28T02:42:43.741Z,15.95
2022-08-28T02:45:11.767Z,16.35
2022-08-28T02:47:43.708Z,16.92
2022-08-28T02:50:12.984Z,17.52
2022-08-28T02:52:40.553Z,16.38
2022-08-28T02:55:09.060Z,17.13
2022-08-28T02:57:35.811Z,19.77
2022-08-28T03:00:12.031Z,18.42
2022-08-28T03:02:39.960Z,17.63
2022-08-28T03:05:07.791Z,17.02
2022-08-28T03:07:34.685Z,18.02
2022-08-28T03:10:01.691Z,17.95
2022-08-28T03:12:28.424Z,19.13
2022-08-28T03:14:55.332Z,18.48
2022-08-28T03:17:22.153Z,19.02
2022-08-28T03:19:52.155Z,17.77
2022-08-28T03:22:43.160Z,18.85
2022-08-28T03:25:11.295Z,18.23
2022-08-28T03:27:38.521Z,19.23
2022-08-28T03:30:07.857Z,18.38
2022-08-28T03:32:34.739Z,19.40
2022-08-28T03:35:02.119Z,18.65
2022-08-28T03:37:28.937Z,18.85
2022-08-28T03:39:55.687Z,20.27
2022-08-28T03:42:22.991Z,18.88
2022-08-28T03:44:49.687Z,18.88
2022-08-28T03:47:16.637Z,19.98
2022-08-28T03:49:45.276Z,17.95
2022-08-28T03:52:12.470Z,20.60
2022-08-28T03:54:39.350Z,19.42
2022-08-28T03:57:07.513Z,20.10
2022-08-28T03:59:35.810Z,19.77
2022-08-28T04:02:02.545Z,19.30
2022-08-28T04:04:29.310Z,18.50
2022-08-28T04:06:56.015Z,18.52
2022-08-28T04:09:22.833Z,18.80
2022-08-28T04:11:49.480Z,19.52
2022-08-28T04:14:16.415Z,19.00
2022-08-28T04:16:43.211Z,19.70
2022-08-28T04:19:10.098Z,19.40
2022-08-28T04:21:36.972Z,19.27
2022-08-28T04:24:07.840Z,20.00
2022-08-28T04:26:36.750Z,18.52
2022-08-28T04:29:04.579Z,18.27
2022-08-28T04:31:31.917Z,19.25
2022-08-28T04:34:04.962Z,21.15
2022-08-28T04:36:33.574Z,20.70
2022-08-28T04:39:00.393Z,19.67
2022-08-28T04:41:27.664Z,20.52
2022-08-28T04:43:57.157Z,20.50
2022-08-28T04:46:24.440Z,19.25
2022-08-28T04:48:51.172Z,19.25
2022-08-28T04:51:18.023Z,19.35
2022-08-28T04:53:44.745Z,18.42
2022-08-28T04:56:13.689Z,17.88
2022-08-28T04:58:41.787Z,20.42
2022-08-28T05:01:15.176Z,25.65
2022-08-28T05:03:42.319Z,22.13
2022-08-28T05:06:09.115Z,28.02
2022-08-28T05:08:35.912Z,23.35
2022-08-28T05:11:30.730Z,20.63
2022-08-28T05:14:01.005Z,20.90
2022-08-28T05:16:27.834Z,18.85
2022-08-28T05:18:54.596Z,19.10
2022-08-28T05:21:22.923Z,22.15
2022-08-28T05:23:51.422Z,22.02
2022-08-28T05:26:19.802Z,22.10
2022-08-28T05:28:48.333Z,19.40
2022-08-28T05:31:20.969Z,21.85
2022-08-28T05:33:49.229Z,23.65
2022-08-28T05:36:18.876Z,17.33
2022-08-28T05:38:45.750Z,19.08
2022-08-28T05:41:12.466Z,37.33
2022-08-28T05:43:39.476Z,19.10
2022-08-28T05:46:10.379Z,18.40
2022-08-28T05:48:39.401Z,18.15
2022-08-28T05:51:15.676Z,20.48
2022-08-28T05:53:43.530Z,21.10
2022-08-28T05:56:12.800Z,18.35
2022-08-28T05:58:40.363Z,19.65
2022-08-28T06:01:22.622Z,17.85
2022-08-28T06:04:00.957Z,19.50
2022-08-28T06:06:29.466Z,17.08
2022-08-28T06:09:02.199Z,19.05
2022-08-28T06:11:31.037Z,18.15
2022-08-28T06:14:02.629Z,18.27
2022-08-28T06:16:31.353Z,17.85
2022-08-28T06:18:58.396Z,18.20
2022-08-28T06:21:25.365Z,17.38
2022-08-28T06:23:52.164Z,19.65
2022-08-28T06:26:18.882Z,19.00
2022-08-28T06:28:45.674Z,18.02
2022-08-28T06:31:23.718Z,18.30
2022-08-28T06:33:53.973Z,19.30
2022-08-28T06:36:21.018Z,18.42
2022-08-28T06:38:47.702Z,19.60
2022-08-28T06:41:15.562Z,17.80
2022-08-28T06:43:42.560Z,18.08
2022-08-28T06:46:09.377Z,17.95
2022-08-28T06:48:36.336Z,21.42
2022-08-28T06:51:06.155Z,17.55
2022-08-28T06:53:33.438Z,17.52
2022-08-28T06:56:06.355Z,28.65
2022-08-28T06:58:34.852Z,25.35
2022-08-28T07:01:14.282Z,18.27
2022-08-28T07:03:42.568Z,17.55
2022-08-28T07:06:13.364Z,24.23
2022-08-28T07:08:41.292Z,17.65
2022-08-28T07:11:13.193Z,16.83
2022-08-28T07:13:41.159Z,17.83
2022-08-28T07:16:08.389Z,18.85
2022-08-28T07:18:35.899Z,17.95
2022-08-28T07:21:03.085Z,17.50
2022-08-28T07:23:31.968Z,20.92
2022-08-28T07:25:58.705Z,17.73
2022-08-28T07:28:25.695Z,17.63
2022-08-28T07:31:00.595Z,18.98
2022-08-28T07:33:28.443Z,18.27
2022-08-28T07:35:56.605Z,17.33
2022-08-28T07:38:25.353Z,17.38
2022-08-28T07:40:52.602Z,17.48
2022-08-28T07:43:38.072Z,17.70
2022-08-28T07:46:07.634Z,17.42
2022-08-28T07:48:35.589Z,17.35
2022-08-28T07:51:03.893Z,18.60
2022-08-28T07:53:35.768Z,15.80
2022-08-28T07:56:04.414Z,17.77
2022-08-28T07:58:32.255Z,18.27
2022-08-28T08:00:59.786Z,19.05
2022-08-28T08:03:26.529Z,16.95
2022-08-28T08:05:55.156Z,16.05
2022-08-28T08:08:22.414Z,16.90
2022-08-28T08:10:59.588Z,17.27
2022-08-28T08:13:29.555Z,18.13
2022-08-28T08:16:18.985Z,15.43
2022-08-28T08:18:48.615Z,17.42
2022-08-28T08:21:17.858Z,17.73
2022-08-28T08:23:45.123Z,16.83
2022-08-28T08:26:14.463Z,17.85
2022-08-28T08:28:42.646Z,16.52
2022-08-28T08:31:15.363Z,17.02
2022-08-28T08:33:44.686Z,17.10
2022-08-28T08:36:13.033Z,17.90
2022-08-28T08:38:39.731Z,17.13
2022-08-28T08:41:29.262Z,18.25
2022-08-28T08:44:33.938Z,17.52
2022-08-28T08:47:14.883Z,21.25
2022-08-28T08:49:50.704Z,18.00
2022-08-28T08:52:37.404Z,19.48
2022-08-28T08:55:24.238Z,17.35
2022-08-28T08:58:02.092Z,18.38
2022-08-28T09:00:30.957Z,18.60
2022-08-28T09:03:14.254Z,16.92
2022-08-28T09:06:00.378Z,16.90
2022-08-28T09:08:38.679Z,17.00
2022-08-28T09:11:25.796Z,16.80
2022-08-28T09:13:59.413Z,16.30
2022-08-28T09:16:36.790Z,16.27
2022-08-28T09:19:05.335Z,15.45
2022-08-28T09:21:35.262Z,15.48
2022-08-28T09:24:05.882Z,15.82
2022-08-28T09:26:37.933Z,14.77
2022-08-28T09:29:15.077Z,15.05
2022-08-28T09:31:42.143Z,14.02
2022-08-28T09:34:25.268Z,12.80
2022-08-28T09:36:53.966Z,13.57
2022-08-28T09:39:23.854Z,13.43
2022-08-28T09:42:15.205Z,13.68
2022-08-28T09:44:48.966Z,13.02
2022-08-28T09:47:46.946Z,11.55
2022-08-28T09:50:31.294Z,12.35
2022-08-28T09:53:10.095Z,11.53
2022-08-28T09:55:44.921Z,12.15
2022-08-28T09:58:12.350Z,12.88
2022-08-28T10:00:59.290Z,12.25
2022-08-28T10:03:34.738Z,11.75
2022-08-28T10:06:39.778Z,12.48
2022-08-28T10:09:40.208Z,11.85
2022-08-28T10:12:35.580Z,11.55
2022-08-28T10:15:43.083Z,11.00
2022-08-28T10:18:32.938Z,9.90
2022-08-28T10:21:28.857Z,9.95
2022-08-28T10:24:33.972Z,8.73
2022-08-28T10:27:22.648Z,8.68
2022-08-28T10:30:12.437Z,9.93
2022-08-28T10:32:48.823Z,10.00
2022-08-28T10:35:23.102Z,9.43
2022-08-28T10:38:37.569Z,9.32
2022-08-28T10:41:28.507Z,7.65
2022-08-28T10:43:57.231Z,8.10
2022-08-28T10:46:35.532Z,8.32
2022-08-28T10:49:30.121Z,7.93
2022-08-28T10:52:25.812Z,7.90
2022-08-28T10:55:11.857Z,7.68
2022-08-28T10:57:49.082Z,8.10
2022-08-28T11:00:24.408Z,7.32
2022-08-28T11:03:33.010Z,7.93
2022-08-28T11:06:11.414Z,7.68
2022-08-28T11:08:39.609Z,7.60
2022-08-28T11:11:12.255Z,8.10
2022-08-28T11:13:53.783Z,7.00
2022-08-28T11:16:28.365Z,7.57
2022-08-28T11:19:28.786Z,7.25
2022-08-28T11:22:15.014Z,5.88
2022-08-28T11:24:49.793Z,6.43
2022-08-28T11:27:29.610Z,6.22
2022-08-28T11:30:09.425Z,5.38
2022-08-28T11:32:36.483Z,6.32
2022-08-28T11:35:07.850Z,5.82
2022-08-28T11:37:41.277Z,5.97
2022-08-28T11:40:18.405Z,6.45
2022-08-28T11:42:48.682Z,6.10
2022-08-28T11:45:21.500Z,6.45
2022-08-28T11:47:54.044Z,5.75
2022-08-28T11:50:27.972Z,6.93
2022-08-28T11:53:33.051Z,6.30
2022-08-28T11:56:13.419Z,5.40
2022-08-28T11:59:39.366Z,6.00
2022-08-28T12:02:39.332Z,6.50
2022-08-28T12:05:06.291Z,5.97
2022-08-28T12:07:41.473Z,5.25
2022-08-28T12:10:20.471Z,6.03
2022-08-28T12:12:47.135Z,5.45
2022-08-28T12:15:29.696Z,5.38
2022-08-28T12:18:11.912Z,5.68
2022-08-28T12:20:58.530Z,5.80
2022-08-28T12:23:44.787Z,5.60
2022-08-28T12:26:38.737Z,5.35
2022-08-28T12:29:20.812Z,5.03
2022-08-28T12:32:11.688Z,4.50
2022-08-28T12:34:49.980Z,5.03
2022-08-28T12:37:52.249Z,5.35
2022-08-28T12:40:27.056Z,5.30
2022-08-28T12:43:00.645Z,6.07
2022-08-28T12:45:44.197Z,5.70
2022-08-28T12:48:33.883Z,5.88
2022-08-28T12:51:19.293Z,4.97
2022-08-28T12:53:48.750Z,5.60
2022-08-28T12:56:17.718Z,5.40
2022-08-28T12:58:45.644Z,5.55
2022-08-28T13:01:21.524Z,5.75
2022-08-28T13:04:02.134Z,4.88
2022-08-28T13:06:35.936Z,5.22
2022-08-28T13:09:22.490Z,5.65
2022-08-28T13:11:51.426Z,5.75
2022-08-28T13:14:37.210Z,5.53
2022-08-28T13:17:04.272Z,5.75
2022-08-28T13:19:32.959Z,5.43
2022-08-28T13:22:02.566Z,4.97
2022-08-28T13:24:35.501Z,5.50
2022-08-28T13:27:06.748Z,5.55
2022-08-28T13:29:34.211Z,4.78
2022-08-28T13:32:09.598Z,4.90
2022-08-28T13:34:38.576Z,4.70
2022-08-28T13:37:46.322Z,4.55
2022-08-28T13:40:38.215Z,4.30
2022-08-28T13:43:07.036Z,4.95
2022-08-28T13:45:43.134Z,4.57
2022-08-28T13:48:15.979Z,5.50
2022-08-28T13:50:46.736Z,5.00
2022-08-28T13:53:17.855Z,5.40
2022-08-28T13:55:45.648Z,5.20
2022-08-28T13:58:13.764Z,4.75
2022-08-28T14:00:44.071Z,4.60
2022-08-28T14:03:29.522Z,4.78
2022-08-28T14:05:56.636Z,4.88
2022-08-28T14:08:24.038Z,4.78
2022-08-28T14:10:50.908Z,4.78
2022-08-28T14:13:18.672Z,4.30
2022-08-28T14:15:45.762Z,4.13
2022-08-28T14:18:12.628Z,4.60
2022-08-28T14:20:39.599Z,4.70
2022-08-28T14:23:06.524Z,4.30
2022-08-28T14:25:38.494Z,4.90
2022-08-28T14:28:05.855Z,4.35
2022-08-28T14:30:32.812Z,4.65
2022-08-28T14:32:59.584Z,5.03
2022-08-28T14:35:26.663Z,5.13
2022-08-28T14:37:53.383Z,5.32
2022-08-28T14:40:20.722Z,5.50
2022-08-28T14:42:47.571Z,5.50
2022-08-28T14:45:14.271Z,5.07
2022-08-28T14:47:41.403Z,4.68
2022-08-28T14:50:08.729Z,5.00
2022-08-28T14:52:35.502Z,5.13
2022-08-28T14:55:02.620Z,4.90
2022-08-28T14:57:29.386Z,4.75
2022-08-28T14:59:56.391Z,4.50
2022-08-28T15:02:23.552Z,4.93
2022-08-28T15:04:50.446Z,4.15
2022-08-28T15:07:17.343Z,4.60
2022-08-28T15:09:44.077Z,3.90
2022-08-28T15:12:11.341Z,3.92
2022-08-28T15:14:38.054Z,4.15
2022-08-28T15:17:05.178Z,4.28
2022-08-28T15:19:31.946Z,4.25
2022-08-28T15:21:59.181Z,4.43
2022-08-28T15:24:31.389Z,4.55
2022-08-28T15:26:59.683Z,3.85
2022-08-28T15:29:28.336Z,4.47
2022-08-28T15:31:55.538Z,4.63
2022-08-28T15:34:25.025Z,4.15
2022-08-28T15:36:54.571Z,4.80
2022-08-28T15:39:43.204Z,4.18
2022-08-28T15:42:11.342Z,4.30
2022-08-28T15:44:41.986Z,4.45
2022-08-28T15:47:09.401Z,4.55
2022-08-28T15:49:38.956Z,4.25
2022-08-28T15:52:13.668Z,4.10
2022-08-28T15:54:41.399Z,4.70
2022-08-28T15:57:08.143Z,4.35
2022-08-28T15:59:47.941Z,3.95
2022-08-28T16:02:23.907Z,3.85
2022-08-28T16:04:51.803Z,4.20
2022-08-28T16:07:19.604Z,4.20
2022-08-28T16:09:46.738Z,4.25
2022-08-28T16:12:13.614Z,4.25
2022-08-28T16:14:40.406Z,4.20
2022-08-28T16:17:11.148Z,4.43
2022-08-28T16:19:41.760Z,4.10
2022-08-28T16:22:09.561Z,4.20
2022-08-28T16:24:36.915Z,4.38
2022-08-28T16:27:04.362Z,4.10
2022-08-28T16:29:33.288Z,3.90
2022-08-28T16:32:00.032Z,4.00
2022-08-28T16:34:31.373Z,3.58
2022-08-28T16:36:59.218Z,3.92
2022-08-28T16:39:26.828Z,3.90
2022-08-28T16:41:53.575Z,3.90
2022-08-28T16:44:27.868Z,3.78
2022-08-28T16:46:55.756Z,3.70
2022-08-28T16:49:23.802Z,3.53
2022-08-28T16:51:50.836Z,3.97
2022-08-28T16:54:18.380Z,4.03
2022-08-28T16:56:45.857Z,3.78
2022-08-28T16:59:16.332Z,4.10
2022-08-28T17:01:43.463Z,3.80
2022-08-28T17:04:10.909Z,3.95
2022-08-28T17:06:37.734Z,4.07
2022-08-28T17:09:04.598Z,3.85
2022-08-28T17:11:32.234Z,4.22
2022-08-28T17:14:00.285Z,3.78
2022-08-28T17:16:29.715Z,3.83
2022-08-28T17:18:56.950Z,4.03
2022-08-28T17:21:42.565Z,4.20
2022-08-28T17:24:12.492Z,4.10
2022-08-28T17:26:40.521Z,4.13
2022-08-28T17:29:07.387Z,3.80
2022-08-28T17:31:34.189Z,4.03
2022-08-28T17:34:01.061Z,4.05
2022-08-28T17:36:33.646Z,4.20
2022-08-28T17:39:13.041Z,3.67
2022-08-28T17:41:40.567Z,4.00
2022-08-28T17:44:07.404Z,4.35
2022-08-28T17:46:37.812Z,4.38
2022-08-28T17:49:05.979Z,4.28
2022-08-28T17:51:43.760Z,4.43
2022-08-28T17:54:13.243Z,4.25
2022-08-28T17:56:40.735Z,4.45
2022-08-28T17:59:08.181Z,4.15
2022-08-28T18:01:35.967Z,4.78
2022-08-28T18:04:02.895Z,4.30
2022-08-28T18:06:29.699Z,4.13
2022-08-28T18:08:56.441Z,4.22
2022-08-28T18:11:23.572Z,4.30
2022-08-28T18:13:51.039Z,4.25
2022-08-28T18:16:18.167Z,4.25
2022-08-28T18:18:45.026Z,3.97
2022-08-28T18:21:13.469Z,4.18
2022-08-28T18:23:40.556Z,4.20
2022-08-28T18:26:08.080Z,4.18
2022-08-28T18:28:35.163Z,3.97
2022-08-28T18:31:02.632Z,4.43
2022-08-28T18:33:29.683Z,4.20
2022-08-28T18:35:56.630Z,3.85
2022-08-28T18:38:27.764Z,4.35
2022-08-28T18:40:55.352Z,4.38
2022-08-28T18:43:22.580Z,4.40
2022-08-28T18:45:49.646Z,3.83
2022-08-28T18:48:16.822Z,4.32
2022-08-28T18:50:46.510Z,3.88
2022-08-28T18:53:14.486Z,4.18
2022-08-28T18:55:42.214Z,4.03
2022-08-28T18:58:10.388Z,4.10
2022-08-28T19:00:45.430Z,4.00
2022-08-28T19:03:12.740Z,4.50
2022-08-28T19:05:41.336Z,4.30
2022-08-28T19:08:08.233Z,4.38
2022-08-28T19:10:36.797Z,4.15
2022-08-28T19:13:04.901Z,4.30
2022-08-28T19:15:32.210Z,4.43
2022-08-28T19:18:02.670Z,4.53
2022-08-28T19:20:30.053Z,4.03
2022-08-28T19:22:57.637Z,4.00
2022-08-28T19:25:28.138Z,3.90
2022-08-28T19:27:59.755Z,4.35
2022-08-28T19:30:28.189Z,4.40
2022-08-28T19:32:55.169Z,4.20
2022-08-28T19:35:22.226Z,3.92
2022-08-28T19:37:51.864Z,3.88
2022-08-28T19:40:19.179Z,4.15
2022-08-28T19:42:46.143Z,3.50
2022-08-28T19:45:14.866Z,4.13
2022-08-28T19:47:41.794Z,3.92
2022-08-28T19:50:10.818Z,3.83
2022-08-28T19:52:38.412Z,4.10
2022-08-28T19:55:06.729Z,4.50
2022-08-28T19:57:34.304Z,3.80
2022-08-28T20:00:02.140Z,4.13
2022-08-28T20:02:29.572Z,3.70
2022-08-28T20:04:56.496Z,4.18
2022-08-28T20:07:24.853Z,4.10
2022-08-28T20:09:52.355Z,4.07
2022-08-28T20:12:19.682Z,4.05
2022-08-28T20:14:46.870Z,3.85
2022-08-28T20:17:14.069Z,4.07
2022-08-28T20:19:41.359Z,3.88
2022-08-28T20:22:08.425Z,4.15
2022-08-28T20:24:35.329Z,3.97
2022-08-28T20:27:02.600Z,3.78
2022-08-28T20:29:29.619Z,3.35
2022-08-28T20:31:56.414Z,4.25
2022-08-28T20:34:26.622Z,3.63
2022-08-28T20:36:55.967Z,3.95
2022-08-28T20:39:23.334Z,3.60
2022-08-28T20:41:50.372Z,4.20
2022-08-28T20:44:20.182Z,4.20
2022-08-28T20:46:50.983Z,3.72
2022-08-28T20:49:21.811Z,4.05
2022-08-28T20:51:58.606Z,3.55
2022-08-28T20:54:37.839Z,4.30
2022-08-28T20:57:07.783Z,3.90
2022-08-28T20:59:40.140Z,3.67
2022-08-28T21:02:27.417Z,3.53
2022-08-28T21:04:54.561Z,3.60
2022-08-28T21:07:23.646Z,3.80
2022-08-28T21:10:07.177Z,3.40
2022-08-28T21:12:36.598Z,3.40
2022-08-28T21:15:04.885Z,4.00
2022-08-28T21:17:31.630Z,3.50
2022-08-28T21:20:06.085Z,3.60
2022-08-28T21:22:35.115Z,3.65
2022-08-28T21:25:04.568Z,3.72
2022-08-28T21:27:31.240Z,3.40
2022-08-28T21:29:58.853Z,3.50
2022-08-28T21:32:26.578Z,3.67
2022-08-28T21:34:54.992Z,3.30
2022-08-28T21:37:22.533Z,3.60
2022-08-28T21:39:49.275Z,3.63
2022-08-28T21:42:16.141Z,3.35
2022-08-28T21:44:45.536Z,3.60
2022-08-28T21:47:20.030Z,3.40
2022-08-28T21:49:54.542Z,2.90
2022-08-28T21:54:49.191Z,3.33
2022-08-28T21:57:17.654Z,3.55
2022-08-28T21:59:44.387Z,2.90
2022-08-28T22:02:11.178Z,3.50
2022-08-28T22:04:37.983Z,3.45
2022-08-28T22:07:04.807Z,3.28
2022-08-28T22:09:31.577Z,3.13
2022-08-28T22:11:58.325Z,2.92
2022-08-28T22:14:25.093Z,3.00
2022-08-28T22:16:52.071Z,2.97
2022-08-28T22:19:18.914Z,3.03
2022-08-28T22:22:04.375Z,2.55
2022-08-28T22:24:31.506Z,2.67
2022-08-28T22:26:58.231Z,2.47
2022-08-28T22:29:25.800Z,2.58
2022-08-28T22:31:52.886Z,2.65
2022-08-28T22:34:19.837Z,2.55
2022-08-28T22:36:46.937Z,2.70
2022-08-28T22:39:13.781Z,2.72
2022-08-28T22:41:40.659Z,2.65
2022-08-28T22:44:08.637Z,2.50
2022-08-28T22:46:35.900Z,2.67
2022-08-28T22:49:02.717Z,2.85
2022-08-28T22:51:29.482Z,2.70
2022-08-28T22:53:56.288Z,2.97
2022-08-28T22:56:23.026Z,2.58
2022-08-28T22:58:49.741Z,2.58
2022-08-28T23:01:20.780Z,2.97
2022-08-28T23:03:48.459Z,2.75
2022-08-28T23:06:15.394Z,2.50
2022-08-28T23:08:42.374Z,2.60
2022-08-28T23:11:10.553Z,2.33
2022-08-28T23:13:37.760Z,2.28
2022-08-28T23:16:04.771Z,2.63
2022-08-28T23:18:46.230Z,2.80
2022-08-28T23:21:20.879Z,2.63
2022-08-28T23:23:47.779Z,3.20
2022-08-28T23:26:15.389Z,2.60
2022-08-28T23:28:42.682Z,2.50
2022-08-28T23:31:10.361Z,3.10
2022-08-28T23:33:37.570Z,2.70
2022-08-28T23:36:05.090Z,2.53
2022-08-28T23:38:31.818Z,2.83
2022-08-28T23:40:58.795Z,3.15
2022-08-28T23:43:25.522Z,2.65
2022-08-28T23:45:52.786Z,2.75
2022-08-28T23:48:20.593Z,2.53
2022-08-28T23:50:47.335Z,3.15
2022-08-28T23:53:14.042Z,2.70
2022-08-28T23:55:43.626Z,3.10
2022-08-28T23:58:10.398Z,2.83
